Duvernay, Canada
Current Conditions -  °F | °C
As of 9:00 AM on Saturday 20 Dec 2014 (Local Time) from CYUL Reporting Station
Few Clouds Few Clouds  
Wind Chill:   Ceiling: Unl
Heat Index: 10°   Visibility: 15mi
Dew Point:   Wind: 6mph
Humidity: 92%   Direction: 10°N
Pressure: 30.36"   Gusts: NA
Location:  45.57°N, 73.85°W
Report Text: CYUL 201400Z 01005KT 15SM FEW010 FEW240 M12/M13 A3036 RMK SF1CI1 SF TR CI TR SLP284
Loading
Personal Weather Stations






























Interactive Weather Map New forecast layout! Learn more

10-Day Weather Forecast

Advertisements
Track Severe Weather on mobile